<?xml version="1.0" encoding="UTF-8" standalone="no" ?>
<gpx xmlns="http://www.topografix.com/GPX/1/1" xmlns:xsi="http://www.w3.org/2001/XMLSchema-instance" xsi:schemaLocation="http://www.topografix.com/GPX/1/1 http://www.topografix.com/GPX/1/1/gpx.xsd" version="1.1" creator="VisuGPX - https://www.visugpx.com">
  <metadata>
    <name>VacancesDricouZoe</name>
  </metadata>
  <trk>
    <name><![CDATA[Journal actif: 2021-06-30 12:07]]></name>
    <trkseg>
      <trkpt lat="45.00181" lon="-1.1957">
        <ele>7.35</ele>
        <time>2021-06-30T14:07:30Z</time>
      </trkpt>
      <trkpt lat="45.00178" lon="-1.19617">
        <ele>7.83</ele>
        <time>2021-06-30T14:07:39Z</time>
      </trkpt>
      <trkpt lat="45.00178" lon="-1.19621">
        <ele>7.35</ele>
        <time>2021-06-30T14:07:40Z</time>
      </trkpt>
      <trkpt lat="45.00181" lon="-1.19623">
        <ele>7.35</ele>
        <time>2021-06-30T14:07:41Z</time>
      </trkpt>
      <trkpt lat="45.00185" lon="-1.19624">
        <ele>7.35</ele>
        <time>2021-06-30T14:07:42Z</time>
      </trkpt>
      <trkpt lat="45.00189" lon="-1.19628">
        <ele>7.35</ele>
        <time>2021-06-30T14:07:43Z</time>
      </trkpt>
      <trkpt lat="45.00192" lon="-1.19632">
        <ele>7.35</ele>
        <time>2021-06-30T14:07:44Z</time>
      </trkpt>
      <trkpt lat="45.00193" lon="-1.19639">
        <ele>7.35</ele>
        <time>2021-06-30T14:07:45Z</time>
      </trkpt>
      <trkpt lat="45.00192" lon="-1.19643">
        <ele>7.35</ele>
        <time>2021-06-30T14:07:46Z</time>
      </trkpt>
      <trkpt lat="45.00192" lon="-1.19652">
        <ele>7.35</ele>
        <time>2021-06-30T14:07:48Z</time>
      </trkpt>
      <trkpt lat="45.00191" lon="-1.19657">
        <ele>7.35</ele>
        <time>2021-06-30T14:07:49Z</time>
      </trkpt>
      <trkpt lat="45.00189" lon="-1.19658">
        <ele>6.87</ele>
        <time>2021-06-30T14:07:50Z</time>
      </trkpt>
      <trkpt lat="45.00185" lon="-1.1966">
        <ele>6.87</ele>
        <time>2021-06-30T14:07:51Z</time>
      </trkpt>
      <trkpt lat="45.00185" lon="-1.1966">
        <ele>6.87</ele>
        <time>2021-06-30T14:07:52Z</time>
      </trkpt>
      <trkpt lat="45.0017" lon="-1.19665">
        <ele>6.87</ele>
        <time>2021-06-30T14:08:01Z</time>
      </trkpt>
      <trkpt lat="45.00169" lon="-1.19674">
        <ele>6.87</ele>
        <time>2021-06-30T14:08:02Z</time>
      </trkpt>
      <trkpt lat="45.00158" lon="-1.19741">
        <ele>6.87</ele>
        <time>2021-06-30T14:08:17Z</time>
      </trkpt>
      <trkpt lat="45.00149" lon="-1.19804">
        <ele>6.87</ele>
        <time>2021-06-30T14:08:30Z</time>
      </trkpt>
      <trkpt lat="45.00158" lon="-1.19856">
        <ele>7.35</ele>
        <time>2021-06-30T14:08:43Z</time>
      </trkpt>
      <trkpt lat="45.00194" lon="-1.19898">
        <ele>5.42</ele>
        <time>2021-06-30T14:08:55Z</time>
      </trkpt>
      <trkpt lat="45.0025" lon="-1.19963">
        <ele>4.46</ele>
        <time>2021-06-30T14:09:11Z</time>
      </trkpt>
      <trkpt lat="45.00252" lon="-1.19966">
        <ele>3.98</ele>
        <time>2021-06-30T14:09:12Z</time>
      </trkpt>
      <trkpt lat="45.00254" lon="-1.19969">
        <ele>3.5</ele>
        <time>2021-06-30T14:09:13Z</time>
      </trkpt>
      <trkpt lat="45.00258" lon="-1.19967">
        <ele>3.5</ele>
        <time>2021-06-30T14:09:14Z</time>
      </trkpt>
      <trkpt lat="45.0026" lon="-1.19964">
        <ele>3.98</ele>
        <time>2021-06-30T14:09:15Z</time>
      </trkpt>
      <trkpt lat="45.00265" lon="-1.19962">
        <ele>3.98</ele>
        <time>2021-06-30T14:09:16Z</time>
      </trkpt>
      <trkpt lat="45.00269" lon="-1.19964">
        <ele>3.98</ele>
        <time>2021-06-30T14:09:17Z</time>
      </trkpt>
      <trkpt lat="45.00272" lon="-1.19965">
        <ele>3.98</ele>
        <time>2021-06-30T14:09:18Z</time>
      </trkpt>
      <trkpt lat="45.00276" lon="-1.19971">
        <ele>3.98</ele>
        <time>2021-06-30T14:09:19Z</time>
      </trkpt>
      <trkpt lat="45.00278" lon="-1.19976">
        <ele>3.98</ele>
        <time>2021-06-30T14:09:20Z</time>
      </trkpt>
      <trkpt lat="45.00278" lon="-1.19976">
        <ele>3.98</ele>
        <time>2021-06-30T14:09:21Z</time>
      </trkpt>
      <trkpt lat="45.00279" lon="-1.1998">
        <ele>3.98</ele>
        <time>2021-06-30T14:09:22Z</time>
      </trkpt>
      <trkpt lat="45.003" lon="-1.20023">
        <ele>4.94</ele>
        <time>2021-06-30T14:09:31Z</time>
      </trkpt>
      <trkpt lat="45.00366" lon="-1.20088">
        <ele>6.39</ele>
        <time>2021-06-30T14:09:49Z</time>
      </trkpt>
      <trkpt lat="45.00373" lon="-1.2012">
        <ele>7.35</ele>
        <time>2021-06-30T14:09:59Z</time>
      </trkpt>
      <trkpt lat="45.00373" lon="-1.20135">
        <ele>6.87</ele>
        <time>2021-06-30T14:10:06Z</time>
      </trkpt>
      <trkpt lat="45.00373" lon="-1.20137">
        <ele>6.87</ele>
        <time>2021-06-30T14:10:07Z</time>
      </trkpt>
      <trkpt lat="45.00371" lon="-1.20137">
        <ele>6.87</ele>
        <time>2021-06-30T14:10:08Z</time>
      </trkpt>
      <trkpt lat="45.00369" lon="-1.20137">
        <ele>6.39</ele>
        <time>2021-06-30T14:10:09Z</time>
      </trkpt>
      <trkpt lat="45.00366" lon="-1.20138">
        <ele>6.39</ele>
        <time>2021-06-30T14:10:10Z</time>
      </trkpt>
      <trkpt lat="45.00369" lon="-1.20135">
        <ele>6.39</ele>
        <time>2021-06-30T14:10:11Z</time>
      </trkpt>
      <trkpt lat="45.00369" lon="-1.20133">
        <ele>5.91</ele>
        <time>2021-06-30T14:10:12Z</time>
      </trkpt>
      <trkpt lat="45.00369" lon="-1.2013">
        <ele>5.42</ele>
        <time>2021-06-30T14:10:19Z</time>
      </trkpt>
      <trkpt lat="45.00371" lon="-1.20088">
        <ele>5.91</ele>
        <time>2021-06-30T14:10:30Z</time>
      </trkpt>
      <trkpt lat="45.00426" lon="-1.19985">
        <ele>3.5</ele>
        <time>2021-06-30T14:10:50Z</time>
      </trkpt>
      <trkpt lat="45.00433" lon="-1.19958">
        <ele>2.54</ele>
        <time>2021-06-30T14:10:59Z</time>
      </trkpt>
      <trkpt lat="45.00451" lon="-1.19938">
        <ele>1.58</ele>
        <time>2021-06-30T14:11:07Z</time>
      </trkpt>
      <trkpt lat="45.00457" lon="-1.19966">
        <ele>1.58</ele>
        <time>2021-06-30T14:11:17Z</time>
      </trkpt>
      <trkpt lat="45.00459" lon="-1.19969">
        <ele>1.58</ele>
        <time>2021-06-30T14:11:18Z</time>
      </trkpt>
      <trkpt lat="45.00497" lon="-1.20017">
        <ele>6.39</ele>
        <time>2021-06-30T14:11:30Z</time>
      </trkpt>
      <trkpt lat="45.00526" lon="-1.20053">
        <ele>7.83</ele>
        <time>2021-06-30T14:11:41Z</time>
      </trkpt>
      <trkpt lat="45.00543" lon="-1.201">
        <ele>7.35</ele>
        <time>2021-06-30T14:11:53Z</time>
      </trkpt>
      <trkpt lat="45.00538" lon="-1.20114">
        <ele>6.39</ele>
        <time>2021-06-30T14:11:58Z</time>
      </trkpt>
      <trkpt lat="45.00536" lon="-1.20114">
        <ele>6.39</ele>
        <time>2021-06-30T14:11:59Z</time>
      </trkpt>
      <trkpt lat="45.00533" lon="-1.20115">
        <ele>5.91</ele>
        <time>2021-06-30T14:12:00Z</time>
      </trkpt>
      <trkpt lat="45.00462" lon="-1.20125">
        <ele>4.46</ele>
        <time>2021-06-30T14:12:17Z</time>
      </trkpt>
      <trkpt lat="45.00459" lon="-1.20126">
        <ele>4.94</ele>
        <time>2021-06-30T14:12:18Z</time>
      </trkpt>
      <trkpt lat="45.00456" lon="-1.20126">
        <ele>4.94</ele>
        <time>2021-06-30T14:12:19Z</time>
      </trkpt>
      <trkpt lat="45.00455" lon="-1.20122">
        <ele>4.94</ele>
        <time>2021-06-30T14:12:20Z</time>
      </trkpt>
      <trkpt lat="45.00454" lon="-1.20117">
        <ele>4.94</ele>
        <time>2021-06-30T14:12:21Z</time>
      </trkpt>
      <trkpt lat="45.00454" lon="-1.20112">
        <ele>4.94</ele>
        <time>2021-06-30T14:12:22Z</time>
      </trkpt>
      <trkpt lat="45.00447" lon="-1.20025">
        <ele>3.02</ele>
        <time>2021-06-30T14:12:36Z</time>
      </trkpt>
      <trkpt lat="45.00446" lon="-1.20011">
        <ele>2.54</ele>
        <time>2021-06-30T14:12:43Z</time>
      </trkpt>
      <trkpt lat="45.00445" lon="-1.20009">
        <ele>2.06</ele>
        <time>2021-06-30T14:12:44Z</time>
      </trkpt>
      <trkpt lat="45.00445" lon="-1.20007">
        <ele>2.54</ele>
        <time>2021-06-30T14:13:01Z</time>
      </trkpt>
    </trkseg>
  </trk>
</gpx>